sensor_id;sensor_type;location;lat;lon;timestamp;temperature;humidity
30534;DHT22;73248;52.398;9.814;2024-01-30T00:01:35;8.70;99.90
30534;DHT22;73248;52.398;9.814;2024-01-30T00:04:03;8.70;99.90
30534;DHT22;73248;52.398;9.814;2024-01-30T00:06:28;8.70;99.90
30534;DHT22;73248;52.398;9.814;2024-01-30T00:08:53;8.70;99.90
30534;DHT22;73248;52.398;9.814;2024-01-30T00:11:19;8.70;99.90
30534;DHT22;73248;52.398;9.814;2024-01-30T00:13:47;8.70;99.90
30534;DHT22;73248;52.398;9.814;2024-01-30T00:16:21;8.60;99.90
30534;DHT22;73248;52.398;9.814;2024-01-30T00:18:47;8.60;99.90
30534;DHT22;73248;52.398;9.814;2024-01-30T00:21:15;8.70;99.90
30534;DHT22;73248;52.398;9.814;2024-01-30T00:23:40;8.60;99.90
30534;DHT22;73248;52.398;9.814;2024-01-30T00:26:06;8.60;99.90
30534;DHT22;73248;52.398;9.814;2024-01-30T00:28:31;8.60;99.90
30534;DHT22;73248;52.398;9.814;2024-01-30T00:30:57;8.60;99.90
30534;DHT22;73248;52.398;9.814;2024-01-30T00:33:22;8.60;99.90
30534;DHT22;73248;52.398;9.814;2024-01-30T00:35:50;8.60;99.90
30534;DHT22;73248;52.398;9.814;2024-01-30T00:38:16;8.50;99.90
30534;DHT22;73248;52.398;9.814;2024-01-30T00:40:42;8.50;99.90
30534;DHT22;73248;52.398;9.814;2024-01-30T00:43:07;8.50;99.90
30534;DHT22;73248;52.398;9.814;2024-01-30T00:45:33;8.50;99.90
30534;DHT22;73248;52.398;9.814;2024-01-30T00:47:58;8.50;99.90
30534;DHT22;73248;52.398;9.814;2024-01-30T00:50:26;8.40;99.90
30534;DHT22;73248;52.398;9.814;2024-01-30T00:52:51;8.40;99.90
30534;DHT22;73248;52.398;9.814;2024-01-30T00:55:17;8.40;99.90
30534;DHT22;73248;52.398;9.814;2024-01-30T00:57:42;8.40;99.90
30534;DHT22;73248;52.398;9.814;2024-01-30T01:00:08;8.30;99.90
30534;DHT22;73248;52.398;9.814;2024-01-30T01:02:34;8.30;99.90
30534;DHT22;73248;52.398;9.814;2024-01-30T01:05:00;8.30;99.90
30534;DHT22;73248;52.398;9.814;2024-01-30T01:07:26;8.30;99.90
30534;DHT22;73248;52.398;9.814;2024-01-30T01:09:51;8.30;99.90
30534;DHT22;73248;52.398;9.814;2024-01-30T01:12:17;8.30;99.90
30534;DHT22;73248;52.398;9.814;2024-01-30T01:14:42;8.30;99.90
30534;DHT22;73248;52.398;9.814;2024-01-30T01:17:08;8.30;99.90
30534;DHT22;73248;52.398;9.814;2024-01-30T01:19:33;8.30;99.90
30534;DHT22;73248;52.398;9.814;2024-01-30T01:21:58;8.30;99.90
30534;DHT22;73248;52.398;9.814;2024-01-30T01:24:26;8.30;99.90
30534;DHT22;73248;52.398;9.814;2024-01-30T01:26:52;8.20;99.90
30534;DHT22;73248;52.398;9.814;2024-01-30T01:29:17;8.20;99.90
30534;DHT22;73248;52.398;9.814;2024-01-30T01:31:46;8.20;99.90
30534;DHT22;73248;52.398;9.814;2024-01-30T01:34:14;8.20;99.90
30534;DHT22;73248;52.398;9.814;2024-01-30T01:36:39;8.20;99.90
30534;DHT22;73248;52.398;9.814;2024-01-30T01:39:05;8.10;99.90
30534;DHT22;73248;52.398;9.814;2024-01-30T01:41:30;8.10;99.90
30534;DHT22;73248;52.398;9.814;2024-01-30T01:43:57;8.10;99.90
30534;DHT22;73248;52.398;9.814;2024-01-30T01:46:28;8.10;99.90
30534;DHT22;73248;52.398;9.814;2024-01-30T01:48:55;8.10;99.90
30534;DHT22;73248;52.398;9.814;2024-01-30T01:51:21;8.10;99.90
30534;DHT22;73248;52.398;9.814;2024-01-30T01:53:47;8.10;99.90
30534;DHT22;73248;52.398;9.814;2024-01-30T01:56:12;8.00;99.90
30534;DHT22;73248;52.398;9.814;2024-01-30T01:58:40;8.00;99.90
30534;DHT22;73248;52.398;9.814;2024-01-30T02:01:06;8.00;99.90
30534;DHT22;73248;52.398;9.814;2024-01-30T02:03:33;8.00;99.90
30534;DHT22;73248;52.398;9.814;2024-01-30T02:05:59;7.90;99.90
30534;DHT22;73248;52.398;9.814;2024-01-30T02:08:24;8.00;99.90
30534;DHT22;73248;52.398;9.814;2024-01-30T02:10:50;8.00;99.90
30534;DHT22;73248;52.398;9.814;2024-01-30T02:13:15;7.90;99.90
30534;DHT22;73248;52.398;9.814;2024-01-30T02:15:41;7.90;99.90
30534;DHT22;73248;52.398;9.814;2024-01-30T02:18:06;7.90;99.90
30534;DHT22;73248;52.398;9.814;2024-01-30T02:20:32;7.90;99.90
30534;DHT22;73248;52.398;9.814;2024-01-30T02:22:59;7.80;99.90
30534;DHT22;73248;52.398;9.814;2024-01-30T02:25:37;7.80;99.90
30534;DHT22;73248;52.398;9.814;2024-01-30T02:28:03;7.80;99.90
30534;DHT22;73248;52.398;9.814;2024-01-30T02:30:28;7.70;99.90
30534;DHT22;73248;52.398;9.814;2024-01-30T02:32:54;7.70;99.90
30534;DHT22;73248;52.398;9.814;2024-01-30T02:35:19;7.60;99.90
30534;DHT22;73248;52.398;9.814;2024-01-30T02:37:45;7.60;99.90
30534;DHT22;73248;52.398;9.814;2024-01-30T02:40:10;7.60;99.90
30534;DHT22;73248;52.398;9.814;2024-01-30T02:42:38;7.60;99.90
30534;DHT22;73248;52.398;9.814;2024-01-30T02:45:06;7.60;99.90
30534;DHT22;73248;52.398;9.814;2024-01-30T02:47:32;7.50;99.90
30534;DHT22;73248;52.398;9.814;2024-01-30T02:49:58;7.50;99.90
30534;DHT22;73248;52.398;9.814;2024-01-30T02:52:25;7.50;99.90
30534;DHT22;73248;52.398;9.814;2024-01-30T02:54:53;7.60;99.90
30534;DHT22;73248;52.398;9.814;2024-01-30T02:57:19;7.60;99.90
30534;DHT22;73248;52.398;9.814;2024-01-30T02:59:44;7.60;99.90
30534;DHT22;73248;52.398;9.814;2024-01-30T03:02:12;7.60;99.90
30534;DHT22;73248;52.398;9.814;2024-01-30T03:04:40;7.70;99.90
30534;DHT22;73248;52.398;9.814;2024-01-30T03:07:05;7.70;99.90
30534;DHT22;73248;52.398;9.814;2024-01-30T03:09:31;7.70;99.90
30534;DHT22;73248;52.398;9.814;2024-01-30T03:11:56;7.70;99.90
30534;DHT22;73248;52.398;9.814;2024-01-30T03:14:22;7.80;99.90
30534;DHT22;73248;52.398;9.814;2024-01-30T03:16:49;7.80;99.90
30534;DHT22;73248;52.398;9.814;2024-01-30T03:19:15;7.80;99.90
30534;DHT22;73248;52.398;9.814;2024-01-30T03:21:40;7.80;99.90
30534;DHT22;73248;52.398;9.814;2024-01-30T03:24:06;7.80;99.90
30534;DHT22;73248;52.398;9.814;2024-01-30T03:26:34;7.80;99.90
30534;DHT22;73248;52.398;9.814;2024-01-30T03:29:02;7.80;99.90
30534;DHT22;73248;52.398;9.814;2024-01-30T03:31:27;7.80;99.90
30534;DHT22;73248;52.398;9.814;2024-01-30T03:33:53;7.90;99.90
30534;DHT22;73248;52.398;9.814;2024-01-30T03:36:18;7.90;99.90
30534;DHT22;73248;52.398;9.814;2024-01-30T03:38:44;7.90;99.90
30534;DHT22;73248;52.398;9.814;2024-01-30T03:41:09;7.90;99.90
30534;DHT22;73248;52.398;9.814;2024-01-30T03:43:37;7.90;99.90
30534;DHT22;73248;52.398;9.814;2024-01-30T03:46:03;7.90;99.90
30534;DHT22;73248;52.398;9.814;2024-01-30T03:48:31;8.00;99.90
30534;DHT22;73248;52.398;9.814;2024-01-30T03:50:56;7.90;99.90
30534;DHT22;73248;52.398;9.814;2024-01-30T03:53:22;7.90;99.90
30534;DHT22;73248;52.398;9.814;2024-01-30T03:55:47;7.90;99.90
30534;DHT22;73248;52.398;9.814;2024-01-30T03:58:13;7.90;99.90
30534;DHT22;73248;52.398;9.814;2024-01-30T04:00:38;7.90;99.90
30534;DHT22;73248;52.398;9.814;2024-01-30T04:03:04;7.90;99.90
30534;DHT22;73248;52.398;9.814;2024-01-30T04:05:30;7.90;99.90
30534;DHT22;73248;52.398;9.814;2024-01-30T04:07:55;7.90;99.90
30534;DHT22;73248;52.398;9.814;2024-01-30T04:10:21;7.80;99.90
30534;DHT22;73248;52.398;9.814;2024-01-30T04:12:47;7.90;99.90
30534;DHT22;73248;52.398;9.814;2024-01-30T04:15:14;7.90;99.90
30534;DHT22;73248;52.398;9.814;2024-01-30T04:17:40;7.90;99.90
30534;DHT22;73248;52.398;9.814;2024-01-30T04:20:05;7.80;99.90
30534;DHT22;73248;52.398;9.814;2024-01-30T04:22:31;7.80;99.90
30534;DHT22;73248;52.398;9.814;2024-01-30T04:24:56;7.80;99.90
30534;DHT22;73248;52.398;9.814;2024-01-30T04:27:22;7.80;99.90
30534;DHT22;73248;52.398;9.814;2024-01-30T04:29:47;7.80;99.90
30534;DHT22;73248;52.398;9.814;2024-01-30T04:32:13;7.70;99.90
30534;DHT22;73248;52.398;9.814;2024-01-30T04:34:38;7.70;99.90
30534;DHT22;73248;52.398;9.814;2024-01-30T04:37:06;7.70;99.90
30534;DHT22;73248;52.398;9.814;2024-01-30T04:39:34;7.70;99.90
30534;DHT22;73248;52.398;9.814;2024-01-30T04:42:00;7.70;99.90
30534;DHT22;73248;52.398;9.814;2024-01-30T04:44:28;7.70;99.90
30534;DHT22;73248;52.398;9.814;2024-01-30T04:46:56;7.70;99.90
30534;DHT22;73248;52.398;9.814;2024-01-30T04:49:24;7.70;99.90
30534;DHT22;73248;52.398;9.814;2024-01-30T04:51:49;7.70;99.90
30534;DHT22;73248;52.398;9.814;2024-01-30T04:54:15;7.70;99.90
30534;DHT22;73248;52.398;9.814;2024-01-30T04:56:43;7.70;99.90
30534;DHT22;73248;52.398;9.814;2024-01-30T04:59:08;7.70;99.90
30534;DHT22;73248;52.398;9.814;2024-01-30T05:01:34;7.70;99.90
30534;DHT22;73248;52.398;9.814;2024-01-30T05:03:59;7.70;99.90
30534;DHT22;73248;52.398;9.814;2024-01-30T05:06:28;7.60;99.90
30534;DHT22;73248;52.398;9.814;2024-01-30T05:08:53;7.60;99.90
30534;DHT22;73248;52.398;9.814;2024-01-30T05:11:19;7.60;99.90
30534;DHT22;73248;52.398;9.814;2024-01-30T05:13:44;7.60;99.90
30534;DHT22;73248;52.398;9.814;2024-01-30T05:16:12;7.60;99.90
30534;DHT22;73248;52.398;9.814;2024-01-30T05:18:38;7.60;99.90
30534;DHT22;73248;52.398;9.814;2024-01-30T05:21:04;7.60;99.90
30534;DHT22;73248;52.398;9.814;2024-01-30T05:23:29;7.60;99.90
30534;DHT22;73248;52.398;9.814;2024-01-30T05:25:55;7.60;99.90
30534;DHT22;73248;52.398;9.814;2024-01-30T05:28:20;7.60;99.90
30534;DHT22;73248;52.398;9.814;2024-01-30T05:30:45;7.60;99.90
30534;DHT22;73248;52.398;9.814;2024-01-30T05:33:11;7.60;99.90
30534;DHT22;73248;52.398;9.814;2024-01-30T05:35:39;7.60;99.90
30534;DHT22;73248;52.398;9.814;2024-01-30T05:38:04;7.60;99.90
30534;DHT22;73248;52.398;9.814;2024-01-30T05:40:30;7.60;99.90
30534;DHT22;73248;52.398;9.814;2024-01-30T05:42:56;7.60;99.90
30534;DHT22;73248;52.398;9.814;2024-01-30T05:45:21;7.60;99.90
30534;DHT22;73248;52.398;9.814;2024-01-30T05:47:48;7.50;99.90
30534;DHT22;73248;52.398;9.814;2024-01-30T05:50:14;7.50;99.90
30534;DHT22;73248;52.398;9.814;2024-01-30T05:52:40;7.50;99.90
30534;DHT22;73248;52.398;9.814;2024-01-30T05:55:05;7.50;99.90
30534;DHT22;73248;52.398;9.814;2024-01-30T05:57:31;7.50;99.90
30534;DHT22;73248;52.398;9.814;2024-01-30T05:59:56;7.50;99.90
30534;DHT22;73248;52.398;9.814;2024-01-30T06:02:22;7.50;99.90
30534;DHT22;73248;52.398;9.814;2024-01-30T06:04:47;7.50;99.90
30534;DHT22;73248;52.398;9.814;2024-01-30T06:07:13;7.50;99.90
30534;DHT22;73248;52.398;9.814;2024-01-30T06:09:38;7.50;99.90
30534;DHT22;73248;52.398;9.814;2024-01-30T06:12:04;7.50;99.90
30534;DHT22;73248;52.398;9.814;2024-01-30T06:14:30;7.60;99.90
30534;DHT22;73248;52.398;9.814;2024-01-30T06:16:56;7.60;99.90
30534;DHT22;73248;52.398;9.814;2024-01-30T06:19:21;7.50;99.90
30534;DHT22;73248;52.398;9.814;2024-01-30T06:21:49;7.60;99.90
30534;DHT22;73248;52.398;9.814;2024-01-30T06:24:17;7.60;99.90
30534;DHT22;73248;52.398;9.814;2024-01-30T06:26:42;7.60;99.90
30534;DHT22;73248;52.398;9.814;2024-01-30T06:29:08;7.50;99.90
30534;DHT22;73248;52.398;9.814;2024-01-30T06:31:39;7.60;99.90
30534;DHT22;73248;52.398;9.814;2024-01-30T06:34:04;7.60;99.90
30534;DHT22;73248;52.398;9.814;2024-01-30T06:36:30;7.50;99.90
30534;DHT22;73248;52.398;9.814;2024-01-30T06:38:55;7.60;99.90
30534;DHT22;73248;52.398;9.814;2024-01-30T06:41:23;7.60;99.90
30534;DHT22;73248;52.398;9.814;2024-01-30T06:43:49;7.60;99.90
30534;DHT22;73248;52.398;9.814;2024-01-30T06:46:17;7.60;99.90
30534;DHT22;73248;52.398;9.814;2024-01-30T06:48:42;7.50;99.90
30534;DHT22;73248;52.398;9.814;2024-01-30T06:51:10;7.50;99.90
30534;DHT22;73248;52.398;9.814;2024-01-30T06:53:36;7.60;99.90
30534;DHT22;73248;52.398;9.814;2024-01-30T06:56:01;7.60;99.90
30534;DHT22;73248;52.398;9.814;2024-01-30T06:58:27;7.60;99.90
30534;DHT22;73248;52.398;9.814;2024-01-30T07:00:52;7.60;99.90
30534;DHT22;73248;52.398;9.814;2024-01-30T07:03:17;7.60;99.90
30534;DHT22;73248;52.398;9.814;2024-01-30T07:05:43;7.60;99.90
30534;DHT22;73248;52.398;9.814;2024-01-30T07:08:08;7.60;99.90
30534;DHT22;73248;52.398;9.814;2024-01-30T07:10:34;7.60;99.90
30534;DHT22;73248;52.398;9.814;2024-01-30T07:13:03;7.60;99.90
30534;DHT22;73248;52.398;9.814;2024-01-30T07:15:30;7.60;99.90
30534;DHT22;73248;52.398;9.814;2024-01-30T07:17:55;7.70;99.90
30534;DHT22;73248;52.398;9.814;2024-01-30T07:20:21;7.70;99.90
30534;DHT22;73248;52.398;9.814;2024-01-30T07:22:49;7.70;99.90
30534;DHT22;73248;52.398;9.814;2024-01-30T07:25:14;7.60;99.90
30534;DHT22;73248;52.398;9.814;2024-01-30T07:27:40;7.60;99.90
30534;DHT22;73248;52.398;9.814;2024-01-30T07:30:06;7.60;99.90
30534;DHT22;73248;52.398;9.814;2024-01-30T07:32:34;7.60;99.90
30534;DHT22;73248;52.398;9.814;2024-01-30T07:34:59;7.60;99.90
30534;DHT22;73248;52.398;9.814;2024-01-30T07:37:25;7.60;99.90
30534;DHT22;73248;52.398;9.814;2024-01-30T07:39:53;7.60;99.90
30534;DHT22;73248;52.398;9.814;2024-01-30T07:42:18;7.60;99.90
30534;DHT22;73248;52.398;9.814;2024-01-30T07:44:44;7.60;99.90
30534;DHT22;73248;52.398;9.814;2024-01-30T07:47:09;7.70;99.90
30534;DHT22;73248;52.398;9.814;2024-01-30T07:49:35;7.70;99.90
30534;DHT22;73248;52.398;9.814;2024-01-30T07:52:00;7.70;99.90
30534;DHT22;73248;52.398;9.814;2024-01-30T07:54:26;7.70;99.90
30534;DHT22;73248;52.398;9.814;2024-01-30T07:56:54;7.70;99.90
30534;DHT22;73248;52.398;9.814;2024-01-30T07:59:20;7.70;99.90
30534;DHT22;73248;52.398;9.814;2024-01-30T08:01:49;7.70;99.90
30534;DHT22;73248;52.398;9.814;2024-01-30T08:04:15;7.80;99.90
30534;DHT22;73248;52.398;9.814;2024-01-30T08:06:40;7.80;99.90
30534;DHT22;73248;52.398;9.814;2024-01-30T08:09:06;7.90;99.90
30534;DHT22;73248;52.398;9.814;2024-01-30T08:11:34;7.90;99.90
30534;DHT22;73248;52.398;9.814;2024-01-30T08:14:01;7.90;99.90
30534;DHT22;73248;52.398;9.814;2024-01-30T08:16:27;7.90;99.90
30534;DHT22;73248;52.398;9.814;2024-01-30T08:18:55;7.90;99.90
30534;DHT22;73248;52.398;9.814;2024-01-30T08:21:22;8.00;99.90
30534;DHT22;73248;52.398;9.814;2024-01-30T08:23:48;8.00;99.90
30534;DHT22;73248;52.398;9.814;2024-01-30T08:26:13;8.00;99.90
30534;DHT22;73248;52.398;9.814;2024-01-30T08:28:39;8.00;99.90
30534;DHT22;73248;52.398;9.814;2024-01-30T08:31:04;8.10;99.90
30534;DHT22;73248;52.398;9.814;2024-01-30T08:33:30;8.20;99.90
30534;DHT22;73248;52.398;9.814;2024-01-30T08:35:55;8.20;99.90
30534;DHT22;73248;52.398;9.814;2024-01-30T08:38:21;8.20;99.90
30534;DHT22;73248;52.398;9.814;2024-01-30T08:40:46;8.30;99.90
30534;DHT22;73248;52.398;9.814;2024-01-30T08:43:14;8.40;99.90
30534;DHT22;73248;52.398;9.814;2024-01-30T08:45:42;8.40;99.90
30534;DHT22;73248;52.398;9.814;2024-01-30T08:48:08;8.40;99.90
30534;DHT22;73248;52.398;9.814;2024-01-30T08:50:33;8.40;99.90
30534;DHT22;73248;52.398;9.814;2024-01-30T08:52:59;8.50;99.90
30534;DHT22;73248;52.398;9.814;2024-01-30T08:55:25;8.60;99.90
30534;DHT22;73248;52.398;9.814;2024-01-30T08:57:50;8.60;99.90
30534;DHT22;73248;52.398;9.814;2024-01-30T09:00:17;8.60;99.90
30534;DHT22;73248;52.398;9.814;2024-01-30T09:02:43;8.70;99.90
30534;DHT22;73248;52.398;9.814;2024-01-30T09:05:08;8.80;99.90
30534;DHT22;73248;52.398;9.814;2024-01-30T09:07:36;8.80;99.90
30534;DHT22;73248;52.398;9.814;2024-01-30T09:10:01;8.90;99.90
30534;DHT22;73248;52.398;9.814;2024-01-30T09:12:27;8.90;99.90
30534;DHT22;73248;52.398;9.814;2024-01-30T09:14:53;8.90;99.90
30534;DHT22;73248;52.398;9.814;2024-01-30T09:17:18;9.00;99.90
30534;DHT22;73248;52.398;9.814;2024-01-30T09:19:46;9.00;99.90
30534;DHT22;73248;52.398;9.814;2024-01-30T09:22:12;9.00;99.90
30534;DHT22;73248;52.398;9.814;2024-01-30T09:24:37;9.00;99.90
30534;DHT22;73248;52.398;9.814;2024-01-30T09:27:03;9.00;99.90
30534;DHT22;73248;52.398;9.814;2024-01-30T09:29:28;9.00;99.90
30534;DHT22;73248;52.398;9.814;2024-01-30T09:31:54;9.10;99.90
30534;DHT22;73248;52.398;9.814;2024-01-30T09:34:19;9.20;99.90
30534;DHT22;73248;52.398;9.814;2024-01-30T09:36:45;9.20;99.90
30534;DHT22;73248;52.398;9.814;2024-01-30T09:39:10;9.20;99.90
30534;DHT22;73248;52.398;9.814;2024-01-30T09:41:48;9.30;99.90
30534;DHT22;73248;52.398;9.814;2024-01-30T09:44:17;9.30;99.90
30534;DHT22;73248;52.398;9.814;2024-01-30T09:46:45;9.40;99.90
30534;DHT22;73248;52.398;9.814;2024-01-30T09:49:12;9.40;99.90
30534;DHT22;73248;52.398;9.814;2024-01-30T09:51:40;9.50;99.90
30534;DHT22;73248;52.398;9.814;2024-01-30T09:54:07;9.50;99.90
30534;DHT22;73248;52.398;9.814;2024-01-30T09:56:33;9.60;99.90
30534;DHT22;73248;52.398;9.814;2024-01-30T09:58:59;9.70;99.90
30534;DHT22;73248;52.398;9.814;2024-01-30T10:01:26;9.80;99.90
30534;DHT22;73248;52.398;9.814;2024-01-30T10:03:53;9.80;99.90
30534;DHT22;73248;52.398;9.814;2024-01-30T10:06:19;9.90;99.90
30534;DHT22;73248;52.398;9.814;2024-01-30T10:08:47;9.90;99.90
30534;DHT22;73248;52.398;9.814;2024-01-30T10:11:15;9.90;99.90
30534;DHT22;73248;52.398;9.814;2024-01-30T10:13:41;10.00;99.90
30534;DHT22;73248;52.398;9.814;2024-01-30T10:16:06;10.10;99.90
30534;DHT22;73248;52.398;9.814;2024-01-30T10:18:32;10.00;99.90
30534;DHT22;73248;52.398;9.814;2024-01-30T10:20:58;10.10;99.90
30534;DHT22;73248;52.398;9.814;2024-01-30T10:23:24;10.20;99.90
30534;DHT22;73248;52.398;9.814;2024-01-30T10:25:52;10.20;99.90
30534;DHT22;73248;52.398;9.814;2024-01-30T10:28:17;10.30;99.90
30534;DHT22;73248;52.398;9.814;2024-01-30T10:30:43;10.40;99.90
30534;DHT22;73248;52.398;9.814;2024-01-30T10:33:11;10.50;99.90
30534;DHT22;73248;52.398;9.814;2024-01-30T10:35:36;10.50;99.90
30534;DHT22;73248;52.398;9.814;2024-01-30T10:38:02;10.60;99.90
30534;DHT22;73248;52.398;9.814;2024-01-30T10:40:28;10.70;99.90
30534;DHT22;73248;52.398;9.814;2024-01-30T10:42:54;10.70;99.90
30534;DHT22;73248;52.398;9.814;2024-01-30T10:45:20;10.80;99.90
30534;DHT22;73248;52.398;9.814;2024-01-30T10:47:50;10.90;99.90
30534;DHT22;73248;52.398;9.814;2024-01-30T10:50:21;10.90;99.90
30534;DHT22;73248;52.398;9.814;2024-01-30T10:52:48;10.90;99.90
30534;DHT22;73248;52.398;9.814;2024-01-30T10:55:14;11.00;99.90
30534;DHT22;73248;52.398;9.814;2024-01-30T10:57:41;11.00;99.90
30534;DHT22;73248;52.398;9.814;2024-01-30T11:00:07;11.10;99.90
30534;DHT22;73248;52.398;9.814;2024-01-30T11:02:37;11.10;99.90
30534;DHT22;73248;52.398;9.814;2024-01-30T11:05:04;11.10;99.90
30534;DHT22;73248;52.398;9.814;2024-01-30T11:07:29;11.20;99.90
30534;DHT22;73248;52.398;9.814;2024-01-30T11:12:26;11.10;99.90
30534;DHT22;73248;52.398;9.814;2024-01-30T11:15:07;11.20;99.90
30534;DHT22;73248;52.398;9.814;2024-01-30T11:17:39;11.10;99.90
30534;DHT22;73248;52.398;9.814;2024-01-30T11:20:05;11.10;99.90
30534;DHT22;73248;52.398;9.814;2024-01-30T11:22:35;11.10;99.90
30534;DHT22;73248;52.398;9.814;2024-01-30T11:25:01;11.10;99.90
30534;DHT22;73248;52.398;9.814;2024-01-30T11:27:29;11.10;99.90
30534;DHT22;73248;52.398;9.814;2024-01-30T11:30:00;11.00;99.90
30534;DHT22;73248;52.398;9.814;2024-01-30T11:32:26;11.00;99.90
30534;DHT22;73248;52.398;9.814;2024-01-30T11:34:51;11.10;99.90
30534;DHT22;73248;52.398;9.814;2024-01-30T11:37:19;11.10;99.90
30534;DHT22;73248;52.398;9.814;2024-01-30T11:39:45;11.20;99.90
30534;DHT22;73248;52.398;9.814;2024-01-30T11:42:13;11.20;99.90
30534;DHT22;73248;52.398;9.814;2024-01-30T11:44:39;11.20;99.90
30534;DHT22;73248;52.398;9.814;2024-01-30T11:47:04;11.20;99.90
30534;DHT22;73248;52.398;9.814;2024-01-30T11:49:32;11.20;99.90
30534;DHT22;73248;52.398;9.814;2024-01-30T11:51:58;11.20;99.90
30534;DHT22;73248;52.398;9.814;2024-01-30T11:54:26;11.20;99.90
30534;DHT22;73248;52.398;9.814;2024-01-30T11:56:52;11.20;99.90
30534;DHT22;73248;52.398;9.814;2024-01-30T11:59:17;11.20;99.90
30534;DHT22;73248;52.398;9.814;2024-01-30T12:01:45;11.30;99.90
30534;DHT22;73248;52.398;9.814;2024-01-30T12:04:11;11.30;99.90
30534;DHT22;73248;52.398;9.814;2024-01-30T12:06:36;11.40;99.90
30534;DHT22;73248;52.398;9.814;2024-01-30T12:09:04;11.60;99.90
30534;DHT22;73248;52.398;9.814;2024-01-30T12:11:30;11.90;99.90
30534;DHT22;73248;52.398;9.814;2024-01-30T12:13:55;12.20;99.90
30534;DHT22;73248;52.398;9.814;2024-01-30T12:16:21;12.30;99.90
30534;DHT22;73248;52.398;9.814;2024-01-30T12:18:47;12.40;99.90
30534;DHT22;73248;52.398;9.814;2024-01-30T12:21:17;12.50;99.70
30534;DHT22;73248;52.398;9.814;2024-01-30T12:23:45;12.70;99.90
30534;DHT22;73248;52.398;9.814;2024-01-30T12:26:11;13.00;99.70
30534;DHT22;73248;52.398;9.814;2024-01-30T12:28:46;13.10;99.30
30534;DHT22;73248;52.398;9.814;2024-01-30T12:31:12;13.10;99.40
30534;DHT22;73248;52.398;9.814;2024-01-30T12:33:40;13.30;99.40
30534;DHT22;73248;52.398;9.814;2024-01-30T12:36:05;13.40;99.10
30534;DHT22;73248;52.398;9.814;2024-01-30T12:38:31;13.50;98.70
30534;DHT22;73248;52.398;9.814;2024-01-30T12:40:56;13.50;98.70
30534;DHT22;73248;52.398;9.814;2024-01-30T12:43:26;13.70;98.60
30534;DHT22;73248;52.398;9.814;2024-01-30T12:45:54;13.80;98.50
30534;DHT22;73248;52.398;9.814;2024-01-30T12:48:22;13.80;98.10
30534;DHT22;73248;52.398;9.814;2024-01-30T12:50:50;13.80;98.20
30534;DHT22;73248;52.398;9.814;2024-01-30T12:53:16;13.90;98.40
30534;DHT22;73248;52.398;9.814;2024-01-30T12:55:41;14.00;98.30
30534;DHT22;73248;52.398;9.814;2024-01-30T12:58:09;14.00;98.60
30534;DHT22;73248;52.398;9.814;2024-01-30T13:00:35;14.00;98.10
30534;DHT22;73248;52.398;9.814;2024-01-30T13:03:01;13.90;98.10
30534;DHT22;73248;52.398;9.814;2024-01-30T13:05:29;13.90;98.20
30534;DHT22;73248;52.398;9.814;2024-01-30T13:07:54;13.80;98.30
30534;DHT22;73248;52.398;9.814;2024-01-30T13:10:22;13.90;98.40
30534;DHT22;73248;52.398;9.814;2024-01-30T13:12:47;13.90;98.10
30534;DHT22;73248;52.398;9.814;2024-01-30T13:15:15;13.80;97.90
30534;DHT22;73248;52.398;9.814;2024-01-30T13:17:40;13.60;98.00
30534;DHT22;73248;52.398;9.814;2024-01-30T13:20:08;13.60;98.30
30534;DHT22;73248;52.398;9.814;2024-01-30T13:22:33;13.60;98.50
30534;DHT22;73248;52.398;9.814;2024-01-30T13:25:01;13.60;98.50
30534;DHT22;73248;52.398;9.814;2024-01-30T13:27:27;13.50;98.30
30534;DHT22;73248;52.398;9.814;2024-01-30T13:29:52;13.40;98.50
30534;DHT22;73248;52.398;9.814;2024-01-30T13:32:18;13.40;98.60
30534;DHT22;73248;52.398;9.814;2024-01-30T13:34:43;13.30;98.60
30534;DHT22;73248;52.398;9.814;2024-01-30T13:37:09;13.30;98.70
30534;DHT22;73248;52.398;9.814;2024-01-30T13:39:36;13.20;98.80
30534;DHT22;73248;52.398;9.814;2024-01-30T13:42:02;13.10;98.90
30534;DHT22;73248;52.398;9.814;2024-01-30T13:44:28;13.10;99.00
30534;DHT22;73248;52.398;9.814;2024-01-30T13:46:56;13.00;99.20
30534;DHT22;73248;52.398;9.814;2024-01-30T13:49:21;12.80;99.30
30534;DHT22;73248;52.398;9.814;2024-01-30T13:51:49;12.80;99.40
30534;DHT22;73248;52.398;9.814;2024-01-30T13:54:14;12.80;99.50
30534;DHT22;73248;52.398;9.814;2024-01-30T13:56:41;12.80;99.60
30534;DHT22;73248;52.398;9.814;2024-01-30T13:59:06;12.70;99.60
30534;DHT22;73248;52.398;9.814;2024-01-30T14:01:32;12.60;99.70
30534;DHT22;73248;52.398;9.814;2024-01-30T14:04:00;12.60;99.80
30534;DHT22;73248;52.398;9.814;2024-01-30T14:06:25;12.60;99.90
30534;DHT22;73248;52.398;9.814;2024-01-30T14:08:53;12.60;99.90
30534;DHT22;73248;52.398;9.814;2024-01-30T14:11:19;12.60;99.90
30534;DHT22;73248;52.398;9.814;2024-01-30T14:13:46;12.60;99.90
30534;DHT22;73248;52.398;9.814;2024-01-30T14:16:12;12.60;99.90
30534;DHT22;73248;52.398;9.814;2024-01-30T14:18:37;12.60;99.90
30534;DHT22;73248;52.398;9.814;2024-01-30T14:21:03;12.50;99.90
30534;DHT22;73248;52.398;9.814;2024-01-30T14:23:28;12.50;99.90
30534;DHT22;73248;52.398;9.814;2024-01-30T14:25:54;12.60;99.90
30534;DHT22;73248;52.398;9.814;2024-01-30T14:28:22;12.50;99.90
30534;DHT22;73248;52.398;9.814;2024-01-30T14:30:47;12.40;99.90
30534;DHT22;73248;52.398;9.814;2024-01-30T14:33:13;12.40;99.90
30534;DHT22;73248;52.398;9.814;2024-01-30T14:35:38;12.40;99.90
30534;DHT22;73248;52.398;9.814;2024-01-30T14:38:06;12.40;99.90
30534;DHT22;73248;52.398;9.814;2024-01-30T14:40:32;12.40;99.90
30534;DHT22;73248;52.398;9.814;2024-01-30T14:43:00;12.40;99.90
30534;DHT22;73248;52.398;9.814;2024-01-30T14:45:26;12.30;99.90
30534;DHT22;73248;52.398;9.814;2024-01-30T14:47:53;12.30;99.90
30534;DHT22;73248;52.398;9.814;2024-01-30T14:50:21;12.30;99.90
30534;DHT22;73248;52.398;9.814;2024-01-30T14:52:46;12.30;99.90
30534;DHT22;73248;52.398;9.814;2024-01-30T14:55:14;12.30;99.90
30534;DHT22;73248;52.398;9.814;2024-01-30T14:57:40;12.30;99.90
30534;DHT22;73248;52.398;9.814;2024-01-30T15:00:07;12.30;99.90
30534;DHT22;73248;52.398;9.814;2024-01-30T15:02:34;12.20;99.90
30534;DHT22;73248;52.398;9.814;2024-01-30T15:05:00;12.20;99.90
30534;DHT22;73248;52.398;9.814;2024-01-30T15:07:28;12.20;99.90
30534;DHT22;73248;52.398;9.814;2024-01-30T15:09:54;12.20;99.90
30534;DHT22;73248;52.398;9.814;2024-01-30T15:12:19;12.20;99.90
30534;DHT22;73248;52.398;9.814;2024-01-30T15:14:45;12.20;99.90
30534;DHT22;73248;52.398;9.814;2024-01-30T15:17:16;12.20;99.90
30534;DHT22;73248;52.398;9.814;2024-01-30T15:19:42;12.20;99.90
30534;DHT22;73248;52.398;9.814;2024-01-30T15:22:07;12.20;99.90
30534;DHT22;73248;52.398;9.814;2024-01-30T15:24:35;12.20;99.90
30534;DHT22;73248;52.398;9.814;2024-01-30T15:27:03;12.20;99.90
30534;DHT22;73248;52.398;9.814;2024-01-30T15:29:29;12.20;99.90
30534;DHT22;73248;52.398;9.814;2024-01-30T15:31:54;12.20;99.90
30534;DHT22;73248;52.398;9.814;2024-01-30T15:34:19;12.20;99.90
30534;DHT22;73248;52.398;9.814;2024-01-30T15:36:47;12.10;99.90